sensor_id;sensor_type;location;lat;lon;timestamp;temperature;humidity
21522;DHT22;10922;45.572;10.002;2023-04-28T00:00:49;12.40;99.90
21522;DHT22;10922;45.572;10.002;2023-04-28T00:03:15;12.40;99.90
21522;DHT22;10922;45.572;10.002;2023-04-28T00:05:41;12.50;99.90
21522;DHT22;10922;45.572;10.002;2023-04-28T00:08:07;12.50;99.90
21522;DHT22;10922;45.572;10.002;2023-04-28T00:10:34;12.50;99.90
21522;DHT22;10922;45.572;10.002;2023-04-28T00:12:59;12.40;99.90
21522;DHT22;10922;45.572;10.002;2023-04-28T00:15:25;12.40;99.90
21522;DHT22;10922;45.572;10.002;2023-04-28T00:17:51;12.50;99.90
21522;DHT22;10922;45.572;10.002;2023-04-28T00:20:17;12.50;99.90
21522;DHT22;10922;45.572;10.002;2023-04-28T00:22:43;12.40;99.90
21522;DHT22;10922;45.572;10.002;2023-04-28T00:25:09;12.10;99.90
21522;DHT22;10922;45.572;10.002;2023-04-28T00:27:35;12.00;99.90
21522;DHT22;10922;45.572;10.002;2023-04-28T00:30:01;12.10;99.90
21522;DHT22;10922;45.572;10.002;2023-04-28T00:32:26;12.30;99.90
21522;DHT22;10922;45.572;10.002;2023-04-28T00:34:52;12.40;99.90
21522;DHT22;10922;45.572;10.002;2023-04-28T00:37:18;12.50;99.90
21522;DHT22;10922;45.572;10.002;2023-04-28T00:39:47;12.50;99.90
21522;DHT22;10922;45.572;10.002;2023-04-28T00:42:15;12.40;99.90
21522;DHT22;10922;45.572;10.002;2023-04-28T00:44:41;12.40;99.90
21522;DHT22;10922;45.572;10.002;2023-04-28T00:47:10;12.30;99.90
21522;DHT22;10922;45.572;10.002;2023-04-28T00:49:36;12.40;99.90
21522;DHT22;10922;45.572;10.002;2023-04-28T00:52:04;12.30;99.90
21522;DHT22;10922;45.572;10.002;2023-04-28T00:54:34;12.40;99.90
21522;DHT22;10922;45.572;10.002;2023-04-28T00:57:00;12.50;99.90
21522;DHT22;10922;45.572;10.002;2023-04-28T00:59:30;12.40;99.90
21522;DHT22;10922;45.572;10.002;2023-04-28T01:01:55;12.30;99.90
21522;DHT22;10922;45.572;10.002;2023-04-28T01:04:22;12.50;99.90
21522;DHT22;10922;45.572;10.002;2023-04-28T01:06:49;12.50;99.90
21522;DHT22;10922;45.572;10.002;2023-04-28T01:09:15;12.60;99.90
21522;DHT22;10922;45.572;10.002;2023-04-28T01:11:41;12.60;99.90
21522;DHT22;10922;45.572;10.002;2023-04-28T01:14:06;12.70;99.90
21522;DHT22;10922;45.572;10.002;2023-04-28T01:16:33;12.60;99.90
21522;DHT22;10922;45.572;10.002;2023-04-28T01:18:59;12.60;99.90
21522;DHT22;10922;45.572;10.002;2023-04-28T01:21:26;12.70;99.90
21522;DHT22;10922;45.572;10.002;2023-04-28T01:23:58;12.60;99.90
21522;DHT22;10922;45.572;10.002;2023-04-28T01:26:24;12.60;99.90
21522;DHT22;10922;45.572;10.002;2023-04-28T01:28:50;12.60;99.90
21522;DHT22;10922;45.572;10.002;2023-04-28T01:31:16;12.60;99.90
21522;DHT22;10922;45.572;10.002;2023-04-28T01:33:41;12.50;99.90
21522;DHT22;10922;45.572;10.002;2023-04-28T01:36:07;12.40;99.90
21522;DHT22;10922;45.572;10.002;2023-04-28T01:38:33;12.40;99.90
21522;DHT22;10922;45.572;10.002;2023-04-28T01:40:59;12.40;99.90
21522;DHT22;10922;45.572;10.002;2023-04-28T01:43:25;12.30;99.90
21522;DHT22;10922;45.572;10.002;2023-04-28T01:45:50;12.30;99.90
21522;DHT22;10922;45.572;10.002;2023-04-28T01:48:16;12.30;99.90
21522;DHT22;10922;45.572;10.002;2023-04-28T01:50:42;12.30;99.90
21522;DHT22;10922;45.572;10.002;2023-04-28T01:53:07;12.30;99.90
21522;DHT22;10922;45.572;10.002;2023-04-28T01:55:33;12.20;99.90
21522;DHT22;10922;45.572;10.002;2023-04-28T01:57:58;12.30;99.90
21522;DHT22;10922;45.572;10.002;2023-04-28T02:00:24;12.20;99.90
21522;DHT22;10922;45.572;10.002;2023-04-28T02:02:51;12.20;99.90
21522;DHT22;10922;45.572;10.002;2023-04-28T02:05:17;12.30;99.90
21522;DHT22;10922;45.572;10.002;2023-04-28T02:07:42;12.20;99.90
21522;DHT22;10922;45.572;10.002;2023-04-28T02:10:08;12.10;99.90
21522;DHT22;10922;45.572;10.002;2023-04-28T02:12:34;12.20;99.90
21522;DHT22;10922;45.572;10.002;2023-04-28T02:15:00;12.20;99.90
21522;DHT22;10922;45.572;10.002;2023-04-28T02:17:28;12.20;99.90
21522;DHT22;10922;45.572;10.002;2023-04-28T02:19:54;12.10;99.90
21522;DHT22;10922;45.572;10.002;2023-04-28T02:22:23;11.90;99.90
21522;DHT22;10922;45.572;10.002;2023-04-28T02:24:49;11.70;99.90
21522;DHT22;10922;45.572;10.002;2023-04-28T02:27:15;11.60;99.90
21522;DHT22;10922;45.572;10.002;2023-04-28T02:29:40;11.60;99.90
21522;DHT22;10922;45.572;10.002;2023-04-28T02:32:06;11.50;99.90
21522;DHT22;10922;45.572;10.002;2023-04-28T02:34:32;11.50;99.90
21522;DHT22;10922;45.572;10.002;2023-04-28T02:36:58;11.50;99.90
21522;DHT22;10922;45.572;10.002;2023-04-28T02:39:24;11.70;99.90
21522;DHT22;10922;45.572;10.002;2023-04-28T02:41:52;11.80;99.90
21522;DHT22;10922;45.572;10.002;2023-04-28T02:44:18;11.90;99.90
21522;DHT22;10922;45.572;10.002;2023-04-28T02:46:44;11.80;99.90
21522;DHT22;10922;45.572;10.002;2023-04-28T02:49:10;11.80;99.90
21522;DHT22;10922;45.572;10.002;2023-04-28T02:51:35;11.80;99.90
21522;DHT22;10922;45.572;10.002;2023-04-28T02:54:01;11.70;99.90
21522;DHT22;10922;45.572;10.002;2023-04-28T02:56:27;11.60;99.90
21522;DHT22;10922;45.572;10.002;2023-04-28T02:58:54;11.50;99.90
21522;DHT22;10922;45.572;10.002;2023-04-28T03:01:20;11.70;99.90
21522;DHT22;10922;45.572;10.002;2023-04-28T03:03:45;11.80;99.90
21522;DHT22;10922;45.572;10.002;2023-04-28T03:06:11;12.00;99.90
21522;DHT22;10922;45.572;10.002;2023-04-28T03:08:37;12.00;99.90
21522;DHT22;10922;45.572;10.002;2023-04-28T03:11:02;12.10;99.90
21522;DHT22;10922;45.572;10.002;2023-04-28T03:13:28;12.20;99.90
21522;DHT22;10922;45.572;10.002;2023-04-28T03:15:54;12.20;99.90
21522;DHT22;10922;45.572;10.002;2023-04-28T03:18:20;12.00;99.90
21522;DHT22;10922;45.572;10.002;2023-04-28T03:20:47;12.00;99.90
21522;DHT22;10922;45.572;10.002;2023-04-28T03:23:12;11.80;99.90
21522;DHT22;10922;45.572;10.002;2023-04-28T03:25:38;11.60;99.90
21522;DHT22;10922;45.572;10.002;2023-04-28T03:28:04;11.60;99.90
21522;DHT22;10922;45.572;10.002;2023-04-28T03:30:30;11.40;99.90
21522;DHT22;10922;45.572;10.002;2023-04-28T03:32:56;11.40;99.90
21522;DHT22;10922;45.572;10.002;2023-04-28T03:35:21;11.40;99.90
21522;DHT22;10922;45.572;10.002;2023-04-28T03:37:47;11.40;99.90
21522;DHT22;10922;45.572;10.002;2023-04-28T03:40:13;11.40;99.90
21522;DHT22;10922;45.572;10.002;2023-04-28T03:42:39;11.40;99.90
21522;DHT22;10922;45.572;10.002;2023-04-28T03:45:05;11.40;99.90
21522;DHT22;10922;45.572;10.002;2023-04-28T03:47:31;11.50;99.90
21522;DHT22;10922;45.572;10.002;2023-04-28T03:49:57;11.60;99.90
21522;DHT22;10922;45.572;10.002;2023-04-28T03:52:23;11.70;99.90
21522;DHT22;10922;45.572;10.002;2023-04-28T03:54:49;11.80;99.90
21522;DHT22;10922;45.572;10.002;2023-04-28T03:57:15;11.80;99.90
21522;DHT22;10922;45.572;10.002;2023-04-28T03:59:40;12.00;99.90
21522;DHT22;10922;45.572;10.002;2023-04-28T04:02:06;12.10;99.90
21522;DHT22;10922;45.572;10.002;2023-04-28T04:04:32;12.00;99.90
21522;DHT22;10922;45.572;10.002;2023-04-28T04:06:58;11.90;99.90
21522;DHT22;10922;45.572;10.002;2023-04-28T04:09:24;11.80;99.90
21522;DHT22;10922;45.572;10.002;2023-04-28T04:11:49;12.00;99.90
21522;DHT22;10922;45.572;10.002;2023-04-28T04:14:15;12.00;99.90
21522;DHT22;10922;45.572;10.002;2023-04-28T04:16:41;12.00;99.90
21522;DHT22;10922;45.572;10.002;2023-04-28T04:19:07;12.00;99.90
21522;DHT22;10922;45.572;10.002;2023-04-28T04:21:32;12.00;99.90
21522;DHT22;10922;45.572;10.002;2023-04-28T04:23:58;12.00;99.90
21522;DHT22;10922;45.572;10.002;2023-04-28T04:26:24;12.10;99.90
21522;DHT22;10922;45.572;10.002;2023-04-28T04:28:49;12.30;99.90
21522;DHT22;10922;45.572;10.002;2023-04-28T04:31:15;12.40;99.90
21522;DHT22;10922;45.572;10.002;2023-04-28T04:33:43;12.50;99.90
21522;DHT22;10922;45.572;10.002;2023-04-28T04:36:09;12.50;99.90
21522;DHT22;10922;45.572;10.002;2023-04-28T04:38:35;12.60;99.90
21522;DHT22;10922;45.572;10.002;2023-04-28T04:41:00;12.60;99.90
21522;DHT22;10922;45.572;10.002;2023-04-28T04:43:26;12.60;99.90
21522;DHT22;10922;45.572;10.002;2023-04-28T04:45:52;12.60;99.90
21522;DHT22;10922;45.572;10.002;2023-04-28T04:48:18;12.70;99.90
21522;DHT22;10922;45.572;10.002;2023-04-28T04:50:44;12.70;99.90
21522;DHT22;10922;45.572;10.002;2023-04-28T04:53:09;12.70;99.90
21522;DHT22;10922;45.572;10.002;2023-04-28T04:55:35;12.70;99.90
21522;DHT22;10922;45.572;10.002;2023-04-28T04:58:01;12.70;99.90
21522;DHT22;10922;45.572;10.002;2023-04-28T05:00:27;12.80;99.90
21522;DHT22;10922;45.572;10.002;2023-04-28T05:02:53;12.80;99.90
21522;DHT22;10922;45.572;10.002;2023-04-28T05:05:18;12.80;99.90
21522;DHT22;10922;45.572;10.002;2023-04-28T05:07:44;12.90;99.90
21522;DHT22;10922;45.572;10.002;2023-04-28T05:10:13;13.00;99.90
21522;DHT22;10922;45.572;10.002;2023-04-28T05:12:41;13.00;99.90
21522;DHT22;10922;45.572;10.002;2023-04-28T05:15:09;13.10;99.90
21522;DHT22;10922;45.572;10.002;2023-04-28T05:17:35;13.20;99.90
21522;DHT22;10922;45.572;10.002;2023-04-28T05:20:01;13.20;99.90
21522;DHT22;10922;45.572;10.002;2023-04-28T05:22:27;13.20;99.90
21522;DHT22;10922;45.572;10.002;2023-04-28T05:24:53;13.30;99.90
21522;DHT22;10922;45.572;10.002;2023-04-28T05:27:18;13.30;99.90
21522;DHT22;10922;45.572;10.002;2023-04-28T05:29:44;13.40;99.90
21522;DHT22;10922;45.572;10.002;2023-04-28T05:32:10;13.40;99.90
21522;DHT22;10922;45.572;10.002;2023-04-28T05:34:35;13.60;99.90
21522;DHT22;10922;45.572;10.002;2023-04-28T05:37:01;13.60;99.90
21522;DHT22;10922;45.572;10.002;2023-04-28T05:39:27;13.70;99.90
21522;DHT22;10922;45.572;10.002;2023-04-28T05:41:52;13.80;99.90
21522;DHT22;10922;45.572;10.002;2023-04-28T05:44:18;13.90;99.90
21522;DHT22;10922;45.572;10.002;2023-04-28T05:46:44;13.90;99.90
21522;DHT22;10922;45.572;10.002;2023-04-28T05:49:10;13.90;99.90
21522;DHT22;10922;45.572;10.002;2023-04-28T05:51:36;14.00;99.90
21522;DHT22;10922;45.572;10.002;2023-04-28T05:54:02;14.10;99.90
21522;DHT22;10922;45.572;10.002;2023-04-28T05:56:28;14.00;99.90
21522;DHT22;10922;45.572;10.002;2023-04-28T05:58:53;14.10;99.90
21522;DHT22;10922;45.572;10.002;2023-04-28T06:01:21;14.20;99.90
21522;DHT22;10922;45.572;10.002;2023-04-28T06:03:47;14.10;99.90
21522;DHT22;10922;45.572;10.002;2023-04-28T06:06:12;14.30;99.90
21522;DHT22;10922;45.572;10.002;2023-04-28T06:08:38;14.30;99.90
21522;DHT22;10922;45.572;10.002;2023-04-28T06:11:04;14.40;99.90
21522;DHT22;10922;45.572;10.002;2023-04-28T06:13:30;14.40;99.90
21522;DHT22;10922;45.572;10.002;2023-04-28T06:15:56;14.40;99.90
21522;DHT22;10922;45.572;10.002;2023-04-28T06:18:22;14.60;99.90
21522;DHT22;10922;45.572;10.002;2023-04-28T06:20:48;14.60;99.90
21522;DHT22;10922;45.572;10.002;2023-04-28T06:23:14;14.90;99.90
21522;DHT22;10922;45.572;10.002;2023-04-28T06:25:39;15.10;99.90
21522;DHT22;10922;45.572;10.002;2023-04-28T06:28:05;15.40;99.90
21522;DHT22;10922;45.572;10.002;2023-04-28T06:30:32;15.70;99.90
21522;DHT22;10922;45.572;10.002;2023-04-28T06:32:59;15.90;99.90
21522;DHT22;10922;45.572;10.002;2023-04-28T06:35:25;15.80;99.90
21522;DHT22;10922;45.572;10.002;2023-04-28T06:37:51;15.80;99.90
21522;DHT22;10922;45.572;10.002;2023-04-28T06:40:16;16.00;99.90
21522;DHT22;10922;45.572;10.002;2023-04-28T06:42:42;16.10;99.90
21522;DHT22;10922;45.572;10.002;2023-04-28T06:45:08;16.30;99.90
21522;DHT22;10922;45.572;10.002;2023-04-28T06:47:35;16.50;99.90
21522;DHT22;10922;45.572;10.002;2023-04-28T06:50:02;16.40;99.90
21522;DHT22;10922;45.572;10.002;2023-04-28T06:52:27;16.50;99.90
21522;DHT22;10922;45.572;10.002;2023-04-28T06:54:55;16.40;99.90
21522;DHT22;10922;45.572;10.002;2023-04-28T06:57:20;16.40;99.90
21522;DHT22;10922;45.572;10.002;2023-04-28T06:59:46;16.40;99.90
21522;DHT22;10922;45.572;10.002;2023-04-28T07:02:12;16.60;99.90
21522;DHT22;10922;45.572;10.002;2023-04-28T07:04:38;16.50;99.90
21522;DHT22;10922;45.572;10.002;2023-04-28T07:07:04;16.70;99.90
21522;DHT22;10922;45.572;10.002;2023-04-28T07:09:33;16.80;99.90
21522;DHT22;10922;45.572;10.002;2023-04-28T07:11:59;17.20;99.90
21522;DHT22;10922;45.572;10.002;2023-04-28T07:14:25;17.00;99.90
21522;DHT22;10922;45.572;10.002;2023-04-28T07:16:50;17.10;99.90
21522;DHT22;10922;45.572;10.002;2023-04-28T07:19:16;17.10;99.90
21522;DHT22;10922;45.572;10.002;2023-04-28T07:21:41;17.20;99.90
21522;DHT22;10922;45.572;10.002;2023-04-28T07:24:07;17.30;99.90
21522;DHT22;10922;45.572;10.002;2023-04-28T07:26:33;17.50;99.90
21522;DHT22;10922;45.572;10.002;2023-04-28T07:28:59;17.80;99.90
21522;DHT22;10922;45.572;10.002;2023-04-28T07:31:24;17.90;99.90
21522;DHT22;10922;45.572;10.002;2023-04-28T07:33:50;18.00;99.90
21522;DHT22;10922;45.572;10.002;2023-04-28T07:36:16;17.70;99.90
21522;DHT22;10922;45.572;10.002;2023-04-28T07:38:41;17.40;99.90
21522;DHT22;10922;45.572;10.002;2023-04-28T07:41:07;17.70;99.90
21522;DHT22;10922;45.572;10.002;2023-04-28T07:43:33;17.90;99.90
21522;DHT22;10922;45.572;10.002;2023-04-28T07:45:58;17.80;99.90
21522;DHT22;10922;45.572;10.002;2023-04-28T07:48:24;18.00;99.90
21522;DHT22;10922;45.572;10.002;2023-04-28T07:50:52;18.10;99.90
21522;DHT22;10922;45.572;10.002;2023-04-28T07:53:17;18.10;99.90
21522;DHT22;10922;45.572;10.002;2023-04-28T07:55:43;18.30;99.90
21522;DHT22;10922;45.572;10.002;2023-04-28T07:58:10;18.00;99.90
21522;DHT22;10922;45.572;10.002;2023-04-28T08:00:37;18.10;99.90
21522;DHT22;10922;45.572;10.002;2023-04-28T08:03:02;18.20;99.90
21522;DHT22;10922;45.572;10.002;2023-04-28T08:05:28;18.20;99.90
21522;DHT22;10922;45.572;10.002;2023-04-28T08:07:54;18.30;99.90
21522;DHT22;10922;45.572;10.002;2023-04-28T08:10:20;18.30;99.90
21522;DHT22;10922;45.572;10.002;2023-04-28T08:12:46;18.30;99.90
21522;DHT22;10922;45.572;10.002;2023-04-28T08:15:12;18.10;99.90
21522;DHT22;10922;45.572;10.002;2023-04-28T08:17:38;18.00;99.90
21522;DHT22;10922;45.572;10.002;2023-04-28T08:20:04;18.10;99.90
21522;DHT22;10922;45.572;10.002;2023-04-28T08:22:31;18.30;99.90
21522;DHT22;10922;45.572;10.002;2023-04-28T08:24:56;18.30;99.90
21522;DHT22;10922;45.572;10.002;2023-04-28T08:27:22;18.40;99.90
21522;DHT22;10922;45.572;10.002;2023-04-28T08:29:50;18.60;99.90
21522;DHT22;10922;45.572;10.002;2023-04-28T08:32:16;18.60;99.90
21522;DHT22;10922;45.572;10.002;2023-04-28T08:34:42;18.80;99.90
21522;DHT22;10922;45.572;10.002;2023-04-28T08:37:07;18.90;99.90
21522;DHT22;10922;45.572;10.002;2023-04-28T08:39:33;19.00;99.90
21522;DHT22;10922;45.572;10.002;2023-04-28T08:42:02;19.00;99.90
21522;DHT22;10922;45.572;10.002;2023-04-28T08:44:35;19.20;99.90
21522;DHT22;10922;45.572;10.002;2023-04-28T08:47:07;19.20;99.90
21522;DHT22;10922;45.572;10.002;2023-04-28T08:49:35;19.60;99.90
21522;DHT22;10922;45.572;10.002;2023-04-28T08:52:02;19.90;99.90
21522;DHT22;10922;45.572;10.002;2023-04-28T08:54:34;20.50;99.90
21522;DHT22;10922;45.572;10.002;2023-04-28T08:57:01;21.30;99.90
21522;DHT22;10922;45.572;10.002;2023-04-28T08:59:29;21.50;99.90
21522;DHT22;10922;45.572;10.002;2023-04-28T09:01:55;22.20;99.90
21522;DHT22;10922;45.572;10.002;2023-04-28T09:04:21;22.40;99.90
21522;DHT22;10922;45.572;10.002;2023-04-28T09:06:47;22.00;99.90
21522;DHT22;10922;45.572;10.002;2023-04-28T09:09:23;22.00;99.90
21522;DHT22;10922;45.572;10.002;2023-04-28T09:11:59;22.30;99.90
21522;DHT22;10922;45.572;10.002;2023-04-28T09:14:26;22.30;99.90
21522;DHT22;10922;45.572;10.002;2023-04-28T09:16:53;21.50;99.90
21522;DHT22;10922;45.572;10.002;2023-04-28T09:19:19;21.40;99.90
21522;DHT22;10922;45.572;10.002;2023-04-28T09:21:55;21.50;99.90
21522;DHT22;10922;45.572;10.002;2023-04-28T09:24:28;21.80;99.90
21522;DHT22;10922;45.572;10.002;2023-04-28T09:26:55;21.80;99.90
21522;DHT22;10922;45.572;10.002;2023-04-28T09:29:20;21.80;99.90
21522;DHT22;10922;45.572;10.002;2023-04-28T09:31:46;21.70;99.90
21522;DHT22;10922;45.572;10.002;2023-04-28T09:34:12;21.60;99.90
21522;DHT22;10922;45.572;10.002;2023-04-28T09:36:38;21.10;99.90
21522;DHT22;10922;45.572;10.002;2023-04-28T09:39:03;21.30;99.90
21522;DHT22;10922;45.572;10.002;2023-04-28T09:41:41;21.30;99.90
21522;DHT22;10922;45.572;10.002;2023-04-28T09:44:15;21.40;99.90
21522;DHT22;10922;45.572;10.002;2023-04-28T09:46:45;21.50;99.90
21522;DHT22;10922;45.572;10.002;2023-04-28T09:49:11;21.50;99.90
21522;DHT22;10922;45.572;10.002;2023-04-28T09:51:37;21.60;99.90
21522;DHT22;10922;45.572;10.002;2023-04-28T09:54:04;21.70;99.90
21522;DHT22;10922;45.572;10.002;2023-04-28T09:56:32;21.90;99.90
21522;DHT22;10922;45.572;10.002;2023-04-28T09:58:58;22.10;99.90
21522;DHT22;10922;45.572;10.002;2023-04-28T10:01:26;22.30;99.90
21522;DHT22;10922;45.572;10.002;2023-04-28T10:03:52;22.50;99.90
21522;DHT22;10922;45.572;10.002;2023-04-28T10:06:20;21.70;99.90
21522;DHT22;10922;45.572;10.002;2023-04-28T10:08:48;21.70;99.90
21522;DHT22;10922;45.572;10.002;2023-04-28T10:11:15;21.50;99.90
21522;DHT22;10922;45.572;10.002;2023-04-28T10:13:42;21.80;99.90
21522;DHT22;10922;45.572;10.002;2023-04-28T10:16:09;21.60;99.90
21522;DHT22;10922;45.572;10.002;2023-04-28T10:18:36;21.90;99.90
21522;DHT22;10922;45.572;10.002;2023-04-28T10:21:05;22.30;99.90
21522;DHT22;10922;45.572;10.002;2023-04-28T10:26:16;22.30;99.90
21522;DHT22;10922;45.572;10.002;2023-04-28T10:28:47;21.40;99.90
21522;DHT22;10922;45.572;10.002;2023-04-28T10:31:15;21.90;99.90
21522;DHT22;10922;45.572;10.002;2023-04-28T10:33:42;22.10;99.90
21522;DHT22;10922;45.572;10.002;2023-04-28T10:36:09;22.50;99.90
21522;DHT22;10922;45.572;10.002;2023-04-28T10:39:03;20.90;99.90
21522;DHT22;10922;45.572;10.002;2023-04-28T10:41:33;20.70;99.90
21522;DHT22;10922;45.572;10.002;2023-04-28T10:43:58;20.40;99.90
21522;DHT22;10922;45.572;10.002;2023-04-28T10:46:24;20.30;99.90
21522;DHT22;10922;45.572;10.002;2023-04-28T10:48:51;21.10;99.90
21522;DHT22;10922;45.572;10.002;2023-04-28T10:56:14;20.50;99.90
21522;DHT22;10922;45.572;10.002;2023-04-28T10:59:23;20.90;99.90
21522;DHT22;10922;45.572;10.002;2023-04-28T11:01:32;21.40;99.90
21522;DHT22;10922;45.572;10.002;2023-04-28T11:04:06;21.70;99.90
21522;DHT22;10922;45.572;10.002;2023-04-28T11:06:39;21.50;99.90
21522;DHT22;10922;45.572;10.002;2023-04-28T11:16:58;21.70;99.90
21522;DHT22;10922;45.572;10.002;2023-04-28T11:19:29;22.00;99.90
21522;DHT22;10922;45.572;10.002;2023-04-28T11:21:57;22.70;99.90
21522;DHT22;10922;45.572;10.002;2023-04-28T11:24:23;22.80;99.90
21522;DHT22;10922;45.572;10.002;2023-04-28T11:26:58;22.60;99.90
21522;DHT22;10922;45.572;10.002;2023-04-28T11:29:31;22.90;99.90
21522;DHT22;10922;45.572;10.002;2023-04-28T11:31:57;23.20;99.90
21522;DHT22;10922;45.572;10.002;2023-04-28T11:34:24;22.90;99.90
21522;DHT22;10922;45.572;10.002;2023-04-28T11:36:50;23.60;99.90
21522;DHT22;10922;45.572;10.002;2023-04-28T11:39:16;22.60;99.90
21522;DHT22;10922;45.572;10.002;2023-04-28T11:41:49;22.00;99.90
21522;DHT22;10922;45.572;10.002;2023-04-28T11:44:20;21.70;99.90
21522;DHT22;10922;45.572;10.002;2023-04-28T11:46:54;22.50;99.90
21522;DHT22;10922;45.572;10.002;2023-04-28T11:49:24;22.50;99.90
21522;DHT22;10922;45.572;10.002;2023-04-28T11:51:53;22.90;99.90
21522;DHT22;10922;45.572;10.002;2023-04-28T11:54:25;22.90;99.90
21522;DHT22;10922;45.572;10.002;2023-04-28T11:56:52;23.20;99.90
21522;DHT22;10922;45.572;10.002;2023-04-28T11:59:23;23.00;99.90
21522;DHT22;10922;45.572;10.002;2023-04-28T12:01:54;22.00;99.90
21522;DHT22;10922;45.572;10.002;2023-04-28T12:04:37;22.20;99.90
21522;DHT22;10922;45.572;10.002;2023-04-28T12:07:16;22.50;99.90
21522;DHT22;10922;45.572;10.002;2023-04-28T12:09:47;22.90;99.90
21522;DHT22;10922;45.572;10.002;2023-04-28T12:12:15;22.70;99.90
21522;DHT22;10922;45.572;10.002;2023-04-28T12:17:35;23.10;99.90
21522;DHT22;10922;45.572;10.002;2023-04-28T12:20:09;23.50;99.90
21522;DHT22;10922;45.572;10.002;2023-04-28T12:22:46;22.80;99.90
21522;DHT22;10922;45.572;10.002;2023-04-28T12:25:14;22.80;99.90
21522;DHT22;10922;45.572;10.002;2023-04-28T12:27:57;22.40;99.90
21522;DHT22;10922;45.572;10.002;2023-04-28T12:30:23;22.00;99.90
21522;DHT22;10922;45.572;10.002;2023-04-28T12:32:49;21.80;99.90
21522;DHT22;10922;45.572;10.002;2023-04-28T12:35:15;22.10;99.90
21522;DHT22;10922;45.572;10.002;2023-04-28T12:37:42;22.60;99.90
21522;DHT22;10922;45.572;10.002;2023-04-28T12:40:08;23.00;99.90
21522;DHT22;10922;45.572;10.002;2023-04-28T12:42:38;23.30;99.90
21522;DHT22;10922;45.572;10.002;2023-04-28T12:45:05;24.30;99.90
21522;DHT22;10922;45.572;10.002;2023-04-28T12:47:35;27.80;99.90
21522;DHT22;10922;45.572;10.002;2023-04-28T12:50:01;29.30;99.90
21522;DHT22;10922;45.572;10.002;2023-04-28T12:52:26;30.40;99.90
21522;DHT22;10922;45.572;10.002;2023-04-28T12:54:52;31.10;99.90
21522;DHT22;10922;45.572;10.002;2023-04-28T12:57:21;32.20;99.90
21522;DHT22;10922;45.572;10.002;2023-04-28T12:59:47;32.60;99.90
21522;DHT22;10922;45.572;10.002;2023-04-28T13:02:13;32.70;99.90
21522;DHT22;10922;45.572;10.002;2023-04-28T13:04:40;33.80;99.90
21522;DHT22;10922;45.572;10.002;2023-04-28T13:07:11;32.10;99.90
21522;DHT22;10922;45.572;10.002;2023-04-28T13:09:39;33.00;99.90
21522;DHT22;10922;45.572;10.002;2023-04-28T13:12:08;31.90;99.90
21522;DHT22;10922;45.572;10.002;2023-04-28T13:14:34;32.70;99.90
21522;DHT22;10922;45.572;10.002;2023-04-28T13:17:17;31.70;99.90
21522;DHT22;10922;45.572;10.002;2023-04-28T13:19:43;32.30;99.90
21522;DHT22;10922;45.572;10.002;2023-04-28T13:22:08;34.00;99.90
21522;DHT22;10922;45.572;10.002;2023-04-28T13:24:34;36.90;99.90
21522;DHT22;10922;45.572;10.002;2023-04-28T13:27:00;35.60;99.90
21522;DHT22;10922;45.572;10.002;2023-04-28T13:29:27;35.30;99.90
21522;DHT22;10922;45.572;10.002;2023-04-28T13:31:56;37.70;99.90
21522;DHT22;10922;45.572;10.002;2023-04-28T13:34:24;39.10;99.90
21522;DHT22;10922;45.572;10.002;2023-04-28T13:36:51;38.90;99.90
21522;DHT22;10922;45.572;10.002;2023-04-28T13:39:18;36.90;99.90
21522;DHT22;10922;45.572;10.002;2023-04-28T13:41:44;36.90;99.90
21522;DHT22;10922;45.572;10.002;2023-04-28T13:44:10;35.70;99.90
21522;DHT22;10922;45.572;10.002;2023-04-28T13:46:35;34.60;99.90
21522;DHT22;10922;45.572;10.002;2023-04-28T13:49:01;35.80;99.90
21522;DHT22;10922;45.572;10.002;2023-04-28T13:51:27;36.30;99.90
21522;DHT22;10922;45.572;10.002;2023-04-28T13:53:53;38.80;99.90
21522;DHT22;10922;45.572;10.002;2023-04-28T13:56:19;37.00;99.90
21522;DHT22;10922;45.572;10.002;2023-04-28T13:58:45;38.40;99.90
21522;DHT22;10922;45.572;10.002;2023-04-28T14:01:11;36.80;99.90
21522;DHT22;10922;45.572;10.002;2023-04-28T14:03:36;37.30;99.90
21522;DHT22;10922;45.572;10.002;2023-04-28T14:06:02;36.30;99.90
21522;DHT22;10922;45.572;10.002;2023-04-28T14:08:28;37.80;99.90
21522;DHT22;10922;45.572;10.002;2023-04-28T14:10:54;37.80;99.90
21522;DHT22;10922;45.572;10.002;2023-04-28T14:13:19;35.70;99.90
21522;DHT22;10922;45.572;10.002;2023-04-28T14:15:45;34.70;99.90
21522;DHT22;10922;45.572;10.002;2023-04-28T14:18:12;34.30;99.90
21522;DHT22;10922;45.572;10.002;2023-04-28T14:20:38;33.00;99.90
21522;DHT22;10922;45.572;10.002;2023-04-28T14:23:04;35.50;99.90
21522;DHT22;10922;45.572;10.002;2023-04-28T14:25:30;37.80;99.90
21522;DHT22;10922;45.572;10.002;2023-04-28T14:27:55;36.60;99.90
21522;DHT22;10922;45.572;10.002;2023-04-28T14:30:21;38.20;99.90
21522;DHT22;10922;45.572;10.002;2023-04-28T14:32:47;36.30;99.90
21522;DHT22;10922;45.572;10.002;2023-04-28T14:35:13;34.90;99.90
21522;DHT22;10922;45.572;10.002;2023-04-28T14:37:40;35.50;99.90
21522;DHT22;10922;45.572;10.002;2023-04-28T14:40:06;33.30;99.90
21522;DHT22;10922;45.572;10.002;2023-04-28T14:42:33;34.10;99.90
21522;DHT22;10922;45.572;10.002;2023-04-28T14:45:04;34.40;99.90
21522;DHT22;10922;45.572;10.002;2023-04-28T14:47:31;35.20;99.90
21522;DHT22;10922;45.572;10.002;2023-04-28T14:49:57;35.30;99.90
21522;DHT22;10922;45.572;10.002;2023-04-28T14:52:24;33.20;99.90
21522;DHT22;10922;45.572;10.002;2023-04-28T14:54:52;32.50;99.90
21522;DHT22;10922;45.572;10.002;2023-04-28T14:57:18;32.90;99.90
21522;DHT22;10922;45.572;10.002;2023-04-28T14:59:44;31.80;99.90
21522;DHT22;10922;45.572;10.002;2023-04-28T15:02:11;33.40;99.90
21522;DHT22;10922;45.572;10.002;2023-04-28T15:04:38;35.70;99.90
21522;DHT22;10922;45.572;10.002;2023-04-28T15:07:04;35.80;99.90
21522;DHT22;10922;45.572;10.002;2023-04-28T15:09:30;31.80;99.90
21522;DHT22;10922;45.572;10.002;2023-04-28T15:11:56;33.70;99.90
21522;DHT22;10922;45.572;10.002;2023-04-28T15:14:22;33.30;99.90
21522;DHT22;10922;45.572;10.002;2023-04-28T15:16:47;31.90;99.90
21522;DHT22;10922;45.572;10.002;2023-04-28T15:19:13;33.30;99.90
21522;DHT22;10922;45.572;10.002;2023-04-28T15:21:40;33.20;99.90
21522;DHT22;10922;45.572;10.002;2023-04-28T15:24:05;32.60;99.90
21522;DHT22;10922;45.572;10.002;2023-04-28T15:26:31;32.50;99.90
21522;DHT22;10922;45.572;10.002;2023-04-28T15:28:58;32.50;99.90
21522;DHT22;10922;45.572;10.002;2023-04-28T15:31:23;31.30;99.90